East Sheldon, Vermont
Current Conditions -  °F | °C
As of 7:15 PM on Sunday 25 Jan 2015 (Local Time) from KFSO Reporting Station
Clear Clear  
Wind Chill:   Ceiling: Unl
Heat Index:   Visibility: 10mi
Dew Point: -5°   Wind: 3mph
Humidity: 60%   Direction: 270°W
Pressure: 30.04"   Gusts: NA
Location:  44.8764°N, 72.758°W
Report Text: KFSO 260015Z AUTO 27003KT 10SM CLR M14/M20 A3004 RMK AO2 T11431205
Loading
Personal Weather Stations






























Interactive Weather Map New forecast layout! Learn more

10-Day Weather Forecast

Advertisements
Track Severe Weather on mobile